Ararat, NC (27007)

7:59 AM EST on December 29, 2014 (GMT -0500)
White Plains | Change Station
CLOSE
Current Station
Personal Weather Station
Location: Mount Airy, NC
Elevation: 1266 ft
Nearby Weather Stations

Elev 1266 ft 36.45 °N, 80.67 °W | Updated 4 minutes ago

Rain
Rain
48.5 °F
Feels Like 48 °F
N
0.0
Wind Variable Wind from ENE
Gusts 0.0 mph

Today
High -- | Low -- °F
--% Chance of Precip.
Yesterday
High -- | Low -- °F
Precip. -- in
7:33 AM 5:15 PM
First Quarter, 58% visible
Pressure 30.10 in
Visibility 4.0 miles
Clouds Mostly Cloudy 300 ft
Mostly Cloudy 2000 ft
Overcast 7000 ft
Windchill 48 °F
Dew Point 48 °F
Humidity 97%
Rainfall 0.54 in
Snow Depth Not available.
UV 0 out of 12
Pollen .30 out of 12
Air Quality Not available.
Flu Activity Not available.
METAR KMWK 291235Z AUTO 00000KT 4SM RA BKN003 BKN020 OVC070 10/09 A3010 RMK AO2 P0007 T01020091

More Conditions Fewer Conditions

Pressure 30.10 in
Visibility 4.0 miles
Clouds Mostly Cloudy 300 ft
Mostly Cloudy 2000 ft
Overcast 7000 ft
Windchill 48 °F
Dew Point 48 °F
Humidity 97%
Rainfall 0.54 in
Snow Depth Not available.
UV 0 out of 12
Pollen .30 out of 12
Air Quality Not available.
Flu Activity Not available.
METAR KMWK 291235Z AUTO 00000KT 4SM RA BKN003 BKN020 OVC070 10/09 A3010 RMK AO2 P0007 T01020091

More Conditions Fewer Conditions

10-Day Weather Forecast

Almanac

Astronomy

Dec. 29, 2014 Rise Set
Actual Time
Civil Twilight
Nautical Twilight
Astronomical Twilight
Moon
Length of Visible Light
Length of Day
Tomorrow will be .
, % of the Moon is Illuminated

Today's Extremes

State Highs State Lows

Community

WunderPhotos

Upload Photos

1,781,574 photos uploaded!

WunderBlogs® & News

Nearby

Air Quality

  Air Quality AQ Index Pollutant
Not available.

Snow Depth

Station Depth Elevation

Earthquake Activity

City Distance Mag. Time & Date
Minimum magnitude displayed is 2.5.

Coastal Water Temperatures

Place Temperature

Nearby Weather Stations